Time;durP1;ratioP1;P1;durP2;ratioP2;P2;SDS_P1;SDS_P2;PMS_P1;PMS_P2;Temp;Humidity;BMP_temperature;BMP_pressure;BME280_temperature;BME280_humidity;BME280_pressure;Samples;Min_cycle;Max_cycle;Signal;HPM_P1;HPM_P2
2022/07/26 00:00:55;;;;;;;3.10;2.80;;;23.40;90.10;;;;;;6054922;23;20474;-72
2022/07/26 00:03:22;;;;;;;2.10;1.90;;;23.40;90.10;;;;;;6055820;23;21061;-72
2022/07/26 00:05:49;;;;;;;4.87;2.60;;;23.40;90.20;;;;;;6058589;23;20464;-72
2022/07/26 00:08:16;;;;;;;2.20;2.00;;;23.40;90.40;;;;;;6056430;23;20475;-73
2022/07/26 00:10:48;;;;;;;3.03;2.53;;;23.30;90.50;;;;;;6057818;23;20447;-72
2022/07/26 00:13:16;;;;;;;2.03;1.80;;;23.30;90.80;;;;;;6056561;23;20543;-72
2022/07/26 00:15:44;;;;;;;3.67;2.10;;;23.30;90.90;;;;;;6058585;23;20496;-72
2022/07/26 00:18:14;;;;;;;3.47;2.10;;;23.20;91.00;;;;;;6057866;23;20965;-73
2022/07/26 00:20:42;;;;;;;3.60;2.00;;;23.30;91.20;;;;;;6059571;23;20434;-72
2022/07/26 00:23:09;;;;;;;2.73;2.40;;;23.30;91.20;;;;;;6056476;23;20541;-72
2022/07/26 00:25:37;;;;;;;2.77;2.20;;;23.20;91.20;;;;;;6059908;23;20463;-72
2022/07/26 00:28:05;;;;;;;2.63;2.17;;;23.40;91.40;;;;;;6057623;23;20517;-72
2022/07/26 00:30:33;;;;;;;2.70;2.10;;;23.20;91.60;;;;;;6057424;23;20454;-73
2022/07/26 00:33:00;;;;;;;3.50;1.97;;;23.10;91.60;;;;;;6057924;23;20501;-72
2022/07/26 00:35:27;;;;;;;4.20;2.10;;;23.10;91.90;;;;;;6056751;23;20470;-73
2022/07/26 00:37:55;;;;;;;2.30;2.10;;;23.10;92.00;;;;;;6057168;23;20470;-72
2022/07/26 00:40:22;;;;;;;4.70;2.13;;;23.10;92.20;;;;;;6060861;23;20945;-73
2022/07/26 00:42:49;;;;;;;2.20;1.70;;;23.10;92.20;;;;;;6059187;23;20450;-73
2022/07/26 00:45:18;;;;;;;3.00;2.10;;;23.10;92.30;;;;;;6057376;23;20538;-73
2022/07/26 00:47:45;;;;;;;2.87;1.93;;;23.10;92.50;;;;;;6058501;23;20487;-73
2022/07/26 00:50:15;;;;;;;1.87;1.77;;;23.10;92.60;;;;;;6056792;23;20447;-73
2022/07/26 00:52:43;;;;;;;2.40;1.87;;;23.10;92.70;;;;;;6056252;23;20448;-73
2022/07/26 00:55:11;;;;;;;3.00;1.90;;;23.10;92.80;;;;;;6057217;23;21336;-73
2022/07/26 00:57:38;;;;;;;2.10;1.90;;;23.20;93.10;;;;;;6059455;23;21025;-72
2022/07/26 01:00:09;;;;;;;2.50;1.93;;;23.20;93.30;;;;;;6057807;23;20443;-72
2022/07/26 01:02:38;;;;;;;2.03;1.90;;;23.20;94.40;;;;;;6058693;23;20859;-72
2022/07/26 01:05:07;;;;;;;2.00;1.87;;;23.20;95.70;;;;;;6057005;23;20830;-72
2022/07/26 01:07:35;;;;;;;2.27;2.07;;;23.20;97.80;;;;;;6056738;23;20550;-73
2022/07/26 01:10:02;;;;;;;2.77;2.47;;;22.90;99.50;;;;;;6056825;23;20443;-77
2022/07/26 01:12:29;;;;;;;3.77;2.60;;;22.70;99.90;;;;;;6050728;23;20831;-77
2022/07/26 01:14:56;;;;;;;5.73;2.93;;;22.40;99.90;;;;;;6057234;23;20485;-78
2022/07/26 01:17:23;;;;;;;3.10;2.80;;;22.10;99.90;;;;;;6058310;23;20473;-78
2022/07/26 01:19:52;;;;;;;3.93;3.00;;;21.80;99.90;;;;;;6056773;23;20477;-78
2022/07/26 01:22:20;;;;;;;4.43;2.53;;;21.60;99.90;;;;;;6055177;23;20476;-78
2022/07/26 01:24:48;;;;;;;3.27;2.97;;;21.40;99.90;;;;;;6056189;23;20498;-78
2022/07/26 01:27:15;;;;;;;3.90;2.30;;;21.20;99.90;;;;;;6057664;23;20504;-78
2022/07/26 01:29:42;;;;;;;2.70;2.50;;;21.10;99.90;;;;;;6056530;23;20474;-78
2022/07/26 01:32:09;;;;;;;2.63;2.43;;;20.90;99.90;;;;;;6056901;23;20437;-77
2022/07/26 01:34:36;;;;;;;2.73;2.23;;;20.90;99.90;;;;;;6058953;23;20473;-78
2022/07/26 01:37:04;;;;;;;2.73;2.50;;;20.90;99.90;;;;;;6057541;23;20493;-77
2022/07/26 01:39:33;;;;;;;2.63;2.43;;;20.80;99.90;;;;;;6054812;23;20450;-78
2022/07/26 01:42:00;;;;;;;3.17;2.77;;;21.00;99.90;;;;;;6054895;23;20443;-77
2022/07/26 01:44:27;;;;;;;2.90;2.60;;;20.70;99.90;;;;;;6058189;23;20999;-77
2022/07/26 01:46:54;;;;;;;3.23;3.03;;;20.60;99.90;;;;;;6058820;23;20490;-77
2022/07/26 01:49:21;;;;;;;3.77;3.37;;;20.20;99.90;;;;;;6056175;23;20518;-77
2022/07/26 01:51:48;;;;;;;3.50;3.20;;;20.00;99.90;;;;;;6056559;23;20989;-78
2022/07/26 01:54:15;;;;;;;4.37;2.93;;;19.90;99.90;;;;;;6058137;23;20456;-77
2022/07/26 01:56:44;;;;;;;3.23;2.93;;;19.90;99.90;;;;;;6062991;23;20443;-77
2022/07/26 01:59:11;;;;;;;2.93;2.73;;;19.80;99.90;;;;;;6058348;23;20439;-77
2022/07/26 02:01:38;;;;;;;3.17;2.77;;;19.80;99.90;;;;;;6054808;23;20454;-77
2022/07/26 02:04:05;;;;;;;3.77;3.00;;;19.80;99.90;;;;;;6057689;23;20478;-77
2022/07/26 02:06:32;;;;;;;3.30;3.00;;;19.80;99.90;;;;;;6057608;23;20439;-77
2022/07/26 02:08:59;;;;;;;3.43;3.13;;;19.70;99.90;;;;;;6052647;23;20470;-77
2022/07/26 02:11:27;;;;;;;3.60;3.40;;;19.70;99.90;;;;;;6055669;23;20443;-77
2022/07/26 02:13:56;;;;;;;3.37;3.10;;;19.70;99.90;;;;;;6054266;23;20490;-77
2022/07/26 02:16:23;;;;;;;4.00;3.50;;;19.70;99.90;;;;;;6057827;23;20447;-78
2022/07/26 02:18:50;;;;;;;3.80;3.40;;;19.50;99.90;;;;;;6054894;23;20455;-77
2022/07/26 02:21:17;;;;;;;4.37;3.40;;;19.30;99.90;;;;;;6063443;23;20446;-79
2022/07/26 02:23:44;;;;;;;4.60;3.70;;;19.20;99.90;;;;;;6058073;23;20553;-78
2022/07/26 02:26:11;;;;;;;4.00;3.60;;;19.20;99.90;;;;;;6059604;23;20995;-78
2022/07/26 02:28:38;;;;;;;4.00;3.70;;;19.10;99.90;;;;;;6058427;23;20532;-78
2022/07/26 02:31:07;;;;;;;4.10;3.80;;;19.00;99.90;;;;;;6056347;23;20924;-78
2022/07/26 02:33:34;;;;;;;4.20;3.90;;;19.00;99.90;;;;;;6057696;23;20554;-78
2022/07/26 02:36:01;;;;;;;4.13;3.80;;;18.90;99.90;;;;;;6059036;23;20895;-78
2022/07/26 02:38:28;;;;;;;4.47;4.17;;;18.90;99.90;;;;;;6060653;23;20516;-78
2022/07/26 02:40:55;;;;;;;4.50;4.10;;;19.00;99.90;;;;;;6061349;23;20881;-78
2022/07/26 02:43:22;;;;;;;4.33;3.93;;;19.00;99.90;;;;;;6056651;23;20459;-78
2022/07/26 02:45:49;;;;;;;4.33;4.03;;;19.00;99.90;;;;;;6059254;23;20443;-77
2022/07/26 02:48:17;;;;;;;4.10;3.90;;;19.00;99.90;;;;;;6053567;23;21142;-78
2022/07/26 02:50:44;;;;;;;3.60;3.30;;;19.00;99.90;;;;;;6057672;23;20439;-78
2022/07/26 02:53:12;;;;;;;4.10;3.80;;;19.00;99.90;;;;;;6058289;23;20463;-78
2022/07/26 02:55:39;;;;;;;3.60;3.30;;;19.10;99.90;;;;;;6055502;23;20467;-78
2022/07/26 02:58:06;;;;;;;2.90;2.70;;;19.10;99.90;;;;;;6053667;23;20523;-78
2022/07/26 03:00:33;;;;;;;2.70;2.50;;;19.20;99.90;;;;;;6056939;23;20444;-78
2022/07/26 03:03:00;;;;;;;3.47;2.67;;;19.30;99.90;;;;;;6056056;23;20870;-78
2022/07/26 03:05:29;;;;;;;3.03;2.73;;;19.40;99.90;;;;;;6058533;23;20458;-78
2022/07/26 03:07:56;;;;;;;2.50;2.03;;;19.50;99.90;;;;;;6055864;23;20524;-78
2022/07/26 03:10:23;;;;;;;2.30;2.10;;;19.60;99.90;;;;;;6056911;23;20455;-78
2022/07/26 03:12:50;;;;;;;4.47;2.40;;;19.60;99.90;;;;;;6058508;23;20454;-78
2022/07/26 03:15:17;;;;;;;3.00;2.77;;;19.70;99.90;;;;;;6058602;23;20435;-78
2022/07/26 03:17:44;;;;;;;2.43;2.23;;;19.70;99.90;;;;;;6062122;23;20471;-78
2022/07/26 03:20:12;;;;;;;2.40;2.17;;;19.80;99.90;;;;;;6059179;23;20945;-77
2022/07/26 03:22:41;;;;;;;2.37;2.17;;;19.80;99.90;;;;;;6055538;23;20782;-78
2022/07/26 03:25:09;;;;;;;2.63;2.40;;;19.80;99.90;;;;;;6057971;23;20461;-78
2022/07/26 03:27:35;;;;;;;2.30;2.10;;;19.80;99.90;;;;;;6057193;23;20977;-77
2022/07/26 03:30:03;;;;;;;2.10;2.00;;;19.90;99.90;;;;;;6056884;23;20435;-77
2022/07/26 03:32:30;;;;;;;2.20;2.00;;;19.90;99.90;;;;;;6060327;23;20467;-78
2022/07/26 03:34:57;;;;;;;3.40;2.20;;;19.90;99.90;;;;;;6057431;23;20482;-77
2022/07/26 03:37:24;;;;;;;2.60;2.30;;;19.80;99.90;;;;;;6057193;23;20473;-77
2022/07/26 03:39:54;;;;;;;2.47;2.27;;;19.90;99.90;;;;;;6055486;23;20447;-78
2022/07/26 03:42:22;;;;;;;2.10;2.00;;;19.90;99.90;;;;;;6058333;23;20779;-75
2022/07/26 03:44:49;;;;;;;2.27;2.07;;;19.90;99.90;;;;;;6056086;23;20459;-74
2022/07/26 03:47:16;;;;;;;2.40;2.20;;;19.90;99.90;;;;;;6066838;23;20455;-74
2022/07/26 03:49:44;;;;;;;2.40;2.00;;;19.90;99.90;;;;;;6058928;23;20471;-75
2022/07/26 03:52:11;;;;;;;2.40;2.07;;;19.90;99.90;;;;;;6058448;23;20474;-74
2022/07/26 03:54:38;;;;;;;2.70;2.00;;;20.10;99.90;;;;;;6052501;23;20541;-75
2022/07/26 03:57:05;;;;;;;2.83;1.80;;;19.90;99.90;;;;;;6055597;23;20841;-75
2022/07/26 03:59:33;;;;;;;2.00;1.90;;;19.90;99.90;;;;;;6034003;23;20558;-74
2022/07/26 04:02:00;;;;;;;2.20;1.93;;;19.90;99.90;;;;;;6053456;23;20473;-74
2022/07/26 04:04:27;;;;;;;2.53;1.77;;;19.90;99.90;;;;;;6053842;23;20467;-74
2022/07/26 04:06:55;;;;;;;3.70;2.13;;;19.90;99.90;;;;;;6056919;23;20517;-74
2022/07/26 04:09:22;;;;;;;2.40;2.20;;;19.90;99.90;;;;;;6056306;23;20474;-74
2022/07/26 04:11:49;;;;;;;2.40;2.20;;;19.80;99.90;;;;;;6057736;23;20457;-75
2022/07/26 04:14:18;;;;;;;2.13;1.93;;;19.70;99.90;;;;;;6051179;23;20531;-74
2022/07/26 04:16:45;;;;;;;4.00;2.30;;;19.70;99.90;;;;;;6062755;23;20794;-74
2022/07/26 04:19:12;;;;;;;2.60;2.40;;;19.70;99.90;;;;;;6059556;23;20500;-73
2022/07/26 04:21:39;;;;;;;3.60;2.23;;;19.70;99.90;;;;;;6052833;23;20508;-75
2022/07/26 04:24:07;;;;;;;2.50;2.30;;;19.70;99.90;;;;;;6056462;23;20474;-74
2022/07/26 04:26:34;;;;;;;2.47;2.27;;;19.70;99.90;;;;;;6058797;23;20493;-73
2022/07/26 04:29:01;;;;;;;3.03;2.10;;;19.70;99.90;;;;;;6060413;23;20483;-74
2022/07/26 04:31:30;;;;;;;2.20;2.00;;;19.70;99.90;;;;;;6055135;23;20464;-74
2022/07/26 04:33:57;;;;;;;3.20;2.27;;;19.80;99.90;;;;;;6046736;23;20529;-73
2022/07/26 04:36:24;;;;;;;2.47;2.10;;;19.70;99.90;;;;;;6058675;23;20502;-73
2022/07/26 04:38:52;;;;;;;2.37;2.17;;;19.70;99.90;;;;;;6049209;23;20439;-74
2022/07/26 04:41:19;;;;;;;2.40;2.20;;;19.80;99.90;;;;;;6057476;23;20440;-73
2022/07/26 04:43:46;;;;;;;3.10;2.20;;;19.80;99.90;;;;;;6057475;23;20551;-73
2022/07/26 04:46:13;;;;;;;2.27;1.90;;;19.80;99.90;;;;;;6057867;23;20470;-73
2022/07/26 04:48:42;;;;;;;2.10;2.00;;;19.80;99.90;;;;;;6055614;23;20474;-73
2022/07/26 04:51:09;;;;;;;2.23;2.13;;;19.80;99.90;;;;;;6061415;23;20593;-73
2022/07/26 04:53:36;;;;;;;2.03;1.83;;;19.80;99.90;;;;;;6055221;23;20550;-74
2022/07/26 04:56:04;;;;;;;2.47;2.07;;;19.80;99.90;;;;;;6059135;23;20462;-73
2022/07/26 04:58:31;;;;;;;2.90;2.00;;;19.80;99.90;;;;;;6058063;23;20854;-73
2022/07/26 05:00:59;;;;;;;2.03;1.83;;;19.80;99.90;;;;;;6062310;23;20952;-73
2022/07/26 05:03:26;;;;;;;2.77;2.40;;;19.90;99.90;;;;;;6061680;23;20494;-74
2022/07/26 05:05:54;;;;;;;3.90;2.77;;;19.90;99.90;;;;;;6061785;23;20526;-73
2022/07/26 05:08:22;;;;;;;2.60;2.40;;;19.90;99.90;;;;;;6062720;23;20471;-73
2022/07/26 05:10:49;;;;;;;3.40;2.60;;;19.90;99.90;;;;;;6059487;23;20958;-73
2022/07/26 05:13:16;;;;;;;3.37;2.50;;;19.90;99.90;;;;;;6044314;23;20478;-73
2022/07/26 05:15:43;;;;;;;2.43;2.20;;;19.90;99.90;;;;;;6042945;23;20548;-73
2022/07/26 05:18:10;;;;;;;2.60;2.30;;;19.90;99.90;;;;;;6050541;23;20443;-73
2022/07/26 05:20:38;;;;;;;2.13;1.90;;;19.90;99.90;;;;;;6056789;23;20482;-72
2022/07/26 05:23:06;;;;;;;3.00;2.37;;;20.00;99.90;;;;;;6049996;23;20542;-72
2022/07/26 05:25:34;;;;;;;3.50;2.33;;;20.00;99.90;;;;;;6054189;23;20454;-72
2022/07/26 05:28:01;;;;;;;2.50;2.30;;;20.00;99.90;;;;;;6055415;23;20463;-72
2022/07/26 05:30:28;;;;;;;2.73;2.53;;;20.20;99.90;;;;;;6050284;23;20446;-72
2022/07/26 05:32:55;;;;;;;2.60;2.40;;;20.10;99.90;;;;;;6054000;23;20455;-73
2022/07/26 05:35:22;;;;;;;3.10;2.80;;;20.20;99.90;;;;;;6054067;23;20444;-72
2022/07/26 05:37:50;;;;;;;2.87;2.40;;;20.20;99.90;;;;;;6059353;23;20440;-72
2022/07/26 05:40:18;;;;;;;3.23;2.53;;;20.20;99.90;;;;;;6054908;23;20502;-72
2022/07/26 05:42:45;;;;;;;2.97;2.77;;;20.40;99.90;;;;;;6055443;23;20850;-73
2022/07/26 05:45:12;;;;;;;3.87;2.70;;;20.30;99.90;;;;;;6054740;23;20447;-72
2022/07/26 05:47:39;;;;;;;3.23;3.03;;;20.30;99.90;;;;;;6057669;23;20439;-72
2022/07/26 05:50:08;;;;;;;2.83;2.63;;;20.40;99.90;;;;;;6060544;23;20966;-72
2022/07/26 05:52:35;;;;;;;3.43;2.53;;;20.40;99.90;;;;;;6051261;23;21005;-72
2022/07/26 05:55:02;;;;;;;4.00;3.10;;;20.40;99.90;;;;;;6060789;23;20529;-72
2022/07/26 05:57:31;;;;;;;4.93;2.90;;;20.50;99.90;;;;;;6055739;23;20436;-72
2022/07/26 05:59:58;;;;;;;3.10;2.70;;;20.50;99.90;;;;;;6056433;23;20476;-72
2022/07/26 06:02:25;;;;;;;2.80;2.60;;;20.50;99.90;;;;;;6053657;23;20473;-72
2022/07/26 06:04:52;;;;;;;2.53;2.33;;;20.50;99.90;;;;;;6055669;23;21603;-72
2022/07/26 06:07:19;;;;;;;3.70;2.90;;;20.50;99.90;;;;;;6061545;23;20929;-72
2022/07/26 06:09:46;;;;;;;4.90;2.77;;;20.60;99.90;;;;;;6058088;23;20475;-72
2022/07/26 06:12:13;;;;;;;6.03;3.10;;;20.60;99.90;;;;;;6055369;23;20460;-72
2022/07/26 06:14:42;;;;;;;3.20;2.80;;;20.70;99.90;;;;;;6053467;23;20522;-72
2022/07/26 06:17:09;;;;;;;2.27;2.07;;;20.80;99.90;;;;;;6055471;23;20648;-72
2022/07/26 06:19:36;;;;;;;5.53;2.47;;;20.80;99.90;;;;;;6063015;23;20532;-72
2022/07/26 06:22:03;;;;;;;2.57;2.37;;;21.00;99.90;;;;;;6054394;23;21652;-72
2022/07/26 06:24:31;;;;;;;4.03;2.70;;;21.10;99.90;;;;;;6056873;23;20441;-72
2022/07/26 06:26:58;;;;;;;4.30;2.67;;;21.20;99.90;;;;;;6059913;23;20470;-72
2022/07/26 06:29:25;;;;;;;3.93;2.30;;;21.30;99.90;;;;;;6054741;23;20567;-72
2022/07/26 06:31:53;;;;;;;2.77;2.10;;;21.50;99.90;;;;;;6048521;23;20458;-73
2022/07/26 06:34:20;;;;;;;2.80;2.20;;;21.60;99.90;;;;;;6052585;23;20865;-71
2022/07/26 06:36:48;;;;;;;6.30;2.57;;;21.60;99.90;;;;;;6061356;23;21202;-72
2022/07/26 06:39:15;;;;;;;3.90;2.47;;;21.60;99.90;;;;;;6056150;23;21408;-72
2022/07/26 06:41:42;;;;;;;3.03;1.90;;;21.70;99.90;;;;;;6057715;23;20466;-72
2022/07/26 06:44:09;;;;;;;3.90;2.20;;;21.80;99.90;;;;;;6057354;23;20473;-72
2022/07/26 06:46:36;;;;;;;2.17;1.93;;;21.90;99.90;;;;;;6055608;23;20448;-72
2022/07/26 06:49:04;;;;;;;2.17;1.97;;;22.00;99.90;;;;;;6056078;23;20528;-72
2022/07/26 06:51:31;;;;;;;2.40;1.93;;;22.00;99.90;;;;;;6055212;23;20470;-72
2022/07/26 06:53:58;;;;;;;2.07;1.90;;;22.10;99.90;;;;;;6060926;23;20826;-72
2022/07/26 06:56:26;;;;;;;3.10;2.00;;;22.20;99.90;;;;;;6054905;23;20447;-71
2022/07/26 06:58:54;;;;;;;2.40;1.70;;;22.30;99.90;;;;;;6057829;23;21033;-72
2022/07/26 07:01:21;;;;;;;2.43;1.57;;;22.50;99.90;;;;;;6053470;23;20559;-72
2022/07/26 07:03:48;;;;;;;1.70;1.50;;;22.60;99.90;;;;;;6056404;23;20448;-72
2022/07/26 07:06:17;;;;;;;2.27;1.43;;;22.70;99.90;;;;;;6055838;23;20440;-71
2022/07/26 07:08:44;;;;;;;1.90;1.60;;;22.80;99.90;;;;;;6056300;23;21093;-72
2022/07/26 07:11:11;;;;;;;3.00;1.53;;;22.90;99.90;;;;;;6049590;23;20764;-71
2022/07/26 07:13:38;;;;;;;1.70;1.50;;;22.90;99.90;;;;;;6055684;23;20439;-71
2022/07/26 07:16:06;;;;;;;3.90;1.53;;;23.10;99.90;;;;;;6059898;23;20427;-71
2022/07/26 07:18:33;;;;;;;1.60;1.40;;;23.20;99.90;;;;;;6057663;23;20467;-72
2022/07/26 07:21:00;;;;;;;3.80;1.57;;;23.40;99.90;;;;;;6057509;23;20474;-71
2022/07/26 07:23:29;;;;;;;3.93;1.73;;;23.50;99.90;;;;;;6056087;23;20431;-71
2022/07/26 07:25:56;;;;;;;3.87;1.73;;;23.70;99.90;;;;;;6057076;23;20478;-71
2022/07/26 07:28:23;;;;;;;3.33;1.50;;;23.90;99.90;;;;;;6050835;23;20487;-71
2022/07/26 07:30:51;;;;;;;2.90;1.70;;;24.00;99.90;;;;;;6054097;23;20566;-72
2022/07/26 07:33:18;;;;;;;4.20;1.50;;;24.30;99.90;;;;;;6058424;23;20939;-72
2022/07/26 07:35:45;;;;;;;1.47;1.37;;;24.50;99.90;;;;;;6056043;23;21031;-71
2022/07/26 07:38:12;;;;;;;2.03;1.50;;;24.60;99.90;;;;;;6055780;23;20435;-71
2022/07/26 07:40:40;;;;;;;2.30;1.60;;;24.80;99.90;;;;;;6052512;23;20517;-71
2022/07/26 07:43:08;;;;;;;1.60;1.23;;;25.00;99.90;;;;;;6054064;23;20850;-71
2022/07/26 07:45:35;;;;;;;1.60;1.50;;;25.20;99.90;;;;;;6056138;23;20442;-71
2022/07/26 07:48:02;;;;;;;5.70;1.60;;;25.30;99.90;;;;;;6055432;23;20466;-71
2022/07/26 07:50:29;;;;;;;3.30;1.40;;;25.60;99.80;;;;;;6059261;23;20954;-71
2022/07/26 07:52:58;;;;;;;5.87;1.40;;;25.80;99.30;;;;;;6055498;23;20450;-71
2022/07/26 07:55:26;;;;;;;1.77;1.20;;;26.10;98.10;;;;;;6055558;23;20439;-72
2022/07/26 07:57:54;;;;;;;2.30;1.47;;;26.20;98.10;;;;;;6052450;23;20483;-71
2022/07/26 08:00:21;;;;;;;1.90;1.30;;;26.50;97.40;;;;;;6055398;23;20473;-71
2022/07/26 08:02:48;;;;;;;2.00;1.47;;;26.70;96.50;;;;;;6054865;23;20438;-71
2022/07/26 08:05:16;;;;;;;2.27;1.30;;;26.80;95.60;;;;;;6056325;23;20443;-71
2022/07/26 08:07:43;;;;;;;1.50;1.17;;;26.90;94.30;;;;;;6057785;23;20436;-71
2022/07/26 08:10:10;;;;;;;2.50;1.03;;;27.00;93.90;;;;;;6054531;23;20579;-71
2022/07/26 08:12:37;;;;;;;1.37;1.10;;;26.90;92.50;;;;;;6058967;23;20443;-71
2022/07/26 08:15:07;;;;;;;2.17;1.20;;;26.90;92.20;;;;;;6053338;23;20957;-72
2022/07/26 08:17:35;;;;;;;2.50;1.17;;;26.90;91.80;;;;;;6057370;23;20435;-71
2022/07/26 08:20:03;;;;;;;2.00;1.20;;;26.80;91.40;;;;;;6057725;23;21009;-71
2022/07/26 08:22:30;;;;;;;1.83;1.10;;;26.90;91.10;;;;;;6047148;23;20450;-72
2022/07/26 08:24:58;;;;;;;2.50;1.50;;;27.00;90.60;;;;;;6062207;23;20443;-71
2022/07/26 08:27:25;;;;;;;1.40;1.20;;;26.90;90.20;;;;;;6056824;23;20489;-71
2022/07/26 08:29:52;;;;;;;3.60;1.20;;;26.80;90.60;;;;;;6054181;23;20524;-72
2022/07/26 08:32:20;;;;;;;1.40;1.20;;;26.80;90.60;;;;;;6057412;23;20459;-72
2022/07/26 08:34:48;;;;;;;2.60;1.20;;;27.10;91.10;;;;;;6067203;23;20504;-72
2022/07/26 08:37:15;;;;;;;2.60;1.13;;;27.20;88.90;;;;;;6055419;23;20442;-72
2022/07/26 08:39:42;;;;;;;1.80;1.10;;;27.40;86.90;;;;;;6058380;23;20588;-72
2022/07/26 08:42:13;;;;;;;3.27;1.27;;;27.60;85.90;;;;;;6054174;23;20447;-72
2022/07/26 08:44:42;;;;;;;2.37;1.20;;;27.80;84.40;;;;;;6055382;23;20514;-72
2022/07/26 08:47:11;;;;;;;1.63;1.03;;;27.90;83.20;;;;;;6055721;23;20434;-72
2022/07/26 08:49:40;;;;;;;1.60;1.50;;;27.90;84.30;;;;;;6058073;23;20487;-72
2022/07/26 08:52:08;;;;;;;1.43;1.17;;;28.10;83.00;;;;;;6054381;23;20439;-72
2022/07/26 08:54:36;;;;;;;2.53;1.30;;;28.40;82.90;;;;;;6053019;23;20442;-72
2022/07/26 08:57:03;;;;;;;2.27;1.30;;;28.60;81.20;;;;;;6056289;23;20439;-72
2022/07/26 08:59:30;;;;;;;1.83;1.13;;;28.70;79.50;;;;;;6057144;23;20577;-72
2022/07/26 09:01:59;;;;;;;2.30;1.27;;;28.70;79.10;;;;;;6054022;23;20446;-72
2022/07/26 09:04:28;;;;;;;1.57;1.13;;;28.60;78.30;;;;;;6055610;23;20435;-72
2022/07/26 09:07:01;;;;;;;1.73;1.10;;;28.50;79.70;;;;;;6051658;23;20968;-72
2022/07/26 09:09:28;;;;;;;3.07;1.00;;;28.60;78.20;;;;;;6053865;23;20570;-72
2022/07/26 09:11:56;;;;;;;3.23;1.40;;;28.50;77.90;;;;;;6061707;23;20466;-72
2022/07/26 09:14:37;;;;;;;1.40;1.13;;;28.20;77.40;;;;;;6059063;23;20435;-72
2022/07/26 09:17:07;;;;;;;1.70;1.30;;;28.10;77.30;;;;;;6057376;23;20435;-72
2022/07/26 09:19:35;;;;;;;2.53;1.50;;;28.20;77.30;;;;;;6055057;23;20439;-72
2022/07/26 09:22:11;;;;;;;2.13;1.00;;;28.20;77.80;;;;;;6058268;23;20489;-72
2022/07/26 09:24:40;;;;;;;1.40;1.20;;;28.30;75.90;;;;;;6056698;23;20479;-72
2022/07/26 09:27:09;;;;;;;1.77;1.10;;;28.40;76.60;;;;;;6053977;23;20459;-72
2022/07/26 09:29:44;;;;;;;2.03;1.17;;;28.50;75.50;;;;;;6057160;23;20459;-76
2022/07/26 09:32:16;;;;;;;1.20;1.10;;;28.40;73.60;;;;;;6053981;23;20450;-75
2022/07/26 09:34:44;;;;;;;1.73;1.10;;;28.40;74.70;;;;;;6057058;23;20474;-75
2022/07/26 09:37:13;;;;;;;1.30;1.20;;;28.50;72.70;;;;;;6061598;23;20516;-76
2022/07/26 09:39:57;;;;;;;1.93;1.10;;;28.40;72.20;;;;;;6055347;23;20505;-76
2022/07/26 09:42:25;;;;;;;1.20;1.10;;;28.40;72.60;;;;;;6056247;23;20435;-75
2022/07/26 09:44:53;;;;;;;1.10;1.00;;;28.30;72.20;;;;;;6056296;23;20446;-75
2022/07/26 09:47:21;;;;;;;1.97;1.23;;;27.90;73.00;;;;;;6056262;23;20450;-75
2022/07/26 09:49:48;;;;;;;2.77;1.20;;;28.00;74.10;;;;;;6054853;23;20511;-75
2022/07/26 09:52:20;;;;;;;2.37;1.20;;;28.00;73.80;;;;;;6056674;23;20883;-75
2022/07/26 09:54:48;;;;;;;2.13;1.50;;;28.10;74.90;;;;;;6056902;23;20499;-75
2022/07/26 09:57:17;;;;;;;2.73;1.30;;;28.40;75.40;;;;;;6066342;23;20491;-75
2022/07/26 09:59:44;;;;;;;3.03;1.13;;;28.40;74.50;;;;;;6055364;23;20463;-75
2022/07/26 10:02:13;;;;;;;2.00;1.20;;;28.40;74.40;;;;;;6055935;23;20442;-75
2022/07/26 10:04:41;;;;;;;3.10;1.20;;;28.60;74.40;;;;;;6053243;23;20772;-75
2022/07/26 10:07:09;;;;;;;4.10;1.13;;;28.60;74.40;;;;;;6054766;23;20822;-75
2022/07/26 10:09:45;;;;;;;2.13;1.40;;;28.50;74.50;;;;;;6055369;23;21021;-76
2022/07/26 10:12:15;;;;;;;2.80;1.23;;;28.50;75.30;;;;;;6059308;23;20434;-75
2022/07/26 10:14:45;;;;;;;2.23;1.27;;;28.40;72.90;;;;;;6055270;23;20431;-75
2022/07/26 10:17:44;;;;;;;2.17;1.10;;;28.30;73.40;;;;;;6058704;23;20489;-74
2022/07/26 10:20:45;;;;;;;1.77;1.20;;;28.50;74.00;;;;;;6052812;23;20807;-77
2022/07/26 10:23:44;;;;;;;1.77;1.40;;;28.80;73.90;;;;;;6060428;23;20478;-75
2022/07/26 10:26:28;;;;;;;2.60;1.30;;;29.20;74.10;;;;;;6056492;23;20450;-75
2022/07/26 10:29:14;;;;;;;2.20;1.27;;;29.20;71.90;;;;;;6055009;23;20483;-76
2022/07/26 10:31:42;;;;;;;2.03;1.20;;;28.90;72.10;;;;;;6057372;23;20521;-75
2022/07/26 10:34:10;;;;;;;1.60;1.20;;;29.00;72.30;;;;;;6063958;23;20475;-77
2022/07/26 10:36:39;;;;;;;1.20;1.10;;;29.00;71.20;;;;;;6057586;23;21010;-76
2022/07/26 10:39:12;;;;;;;3.03;1.17;;;29.10;71.10;;;;;;6056599;23;20544;-75
2022/07/26 10:41:44;;;;;;;3.33;1.30;;;28.60;72.00;;;;;;6059168;23;20475;-76
2022/07/26 10:44:33;;;;;;;2.33;1.20;;;28.70;72.90;;;;;;6056819;23;20443;-76
2022/07/26 10:47:14;;;;;;;1.50;1.07;;;28.80;71.10;;;;;;6054418;23;21005;-76
2022/07/26 10:49:54;;;;;;;1.60;1.10;;;29.10;70.60;;;;;;6057845;23;21047;-75
2022/07/26 10:52:24;;;;;;;1.60;1.17;;;29.10;68.80;;;;;;6050382;23;20444;-76
2022/07/26 10:55:10;;;;;;;1.10;1.00;;;29.10;68.80;;;;;;6053046;23;20509;-76
2022/07/26 10:57:40;;;;;;;2.93;1.20;;;29.10;68.20;;;;;;6055072;23;20529;-75
2022/07/26 11:00:16;;;;;;;2.73;1.30;;;29.10;69.00;;;;;;6061804;23;20852;-76
2022/07/26 11:02:47;;;;;;;3.40;1.40;;;29.10;69.50;;;;;;6057303;23;20447;-75
2022/07/26 11:05:16;;;;;;;2.50;1.30;;;29.10;68.70;;;;;;6051587;23;20451;-75
2022/07/26 11:07:55;;;;;;;1.50;1.13;;;28.60;68.50;;;;;;6053893;23;20509;-75
2022/07/26 11:10:24;;;;;;;2.50;1.30;;;27.90;70.80;;;;;;6055473;23;20516;-75
2022/07/26 11:13:11;;;;;;;1.30;1.00;;;27.90;71.40;;;;;;6063091;23;20445;-75
2022/07/26 11:15:40;;;;;;;1.43;1.00;;;27.80;70.00;;;;;;6058394;23;20558;-75
2022/07/26 11:18:13;;;;;;;3.00;1.17;;;27.90;69.20;;;;;;6058302;23;20889;-76
2022/07/26 11:20:42;;;;;;;1.70;0.90;;;27.90;67.80;;;;;;6060056;23;20463;-75
2022/07/26 11:23:29;;;;;;;1.30;1.13;;;27.80;68.60;;;;;;6057014;23;20490;-75
2022/07/26 11:26:12;;;;;;;1.63;1.00;;;27.90;68.10;;;;;;6054288;23;20457;-76
2022/07/26 11:28:53;;;;;;;1.83;1.10;;;28.10;69.70;;;;;;6058001;23;20479;-75
2022/07/26 11:31:22;;;;;;;2.37;1.00;;;28.10;68.70;;;;;;6054639;23;20470;-75
2022/07/26 11:33:50;;;;;;;1.40;1.10;;;28.00;68.60;;;;;;6055030;23;20467;-74
2022/07/26 11:36:19;;;;;;;2.23;1.03;;;28.10;67.50;;;;;;6057850;23;20452;-75
2022/07/26 11:38:51;;;;;;;1.47;1.10;;;28.50;66.90;;;;;;6058817;23;20432;-75
2022/07/26 11:41:21;;;;;;;1.37;1.10;;;28.80;65.80;;;;;;6055212;23;20448;-75
2022/07/26 11:43:50;;;;;;;1.87;1.10;;;28.90;67.00;;;;;;6052925;23;20575;-75
2022/07/26 11:46:19;;;;;;;1.47;1.10;;;28.90;66.00;;;;;;6056413;23;20700;-75
2022/07/26 11:48:47;;;;;;;1.83;1.37;;;28.90;65.90;;;;;;6054729;23;21131;-75
2022/07/26 11:51:15;;;;;;;1.20;1.10;;;28.70;65.90;;;;;;6057169;23;20467;-75
2022/07/26 11:53:43;;;;;;;1.50;1.10;;;28.40;66.30;;;;;;6059623;23;20447;-75
2022/07/26 11:56:15;;;;;;;1.20;1.00;;;28.40;66.00;;;;;;6057007;23;20448;-76
2022/07/26 11:58:44;;;;;;;1.50;1.00;;;28.80;65.00;;;;;;6056627;23;20440;-75
2022/07/26 12:01:14;;;;;;;1.47;1.07;;;29.10;65.30;;;;;;6056687;23;20443;-75
2022/07/26 12:03:43;;;;;;;1.20;1.00;;;29.50;62.00;;;;;;6055125;23;20463;-75
2022/07/26 12:06:13;;;;;;;1.50;1.07;;;30.00;60.80;;;;;;6054043;23;20954;-76
2022/07/26 12:08:44;;;;;;;1.20;1.10;;;30.10;60.60;;;;;;6061886;23;20514;-75
2022/07/26 12:11:13;;;;;;;1.40;1.00;;;29.90;61.00;;;;;;6059685;23;20499;-75
2022/07/26 12:13:57;;;;;;;1.27;1.00;;;30.00;59.80;;;;;;6053539;23;20444;-74
2022/07/26 12:16:37;;;;;;;1.73;1.07;;;30.30;58.00;;;;;;6055543;23;20467;-75
2022/07/26 12:19:05;;;;;;;1.43;0.93;;;30.50;57.00;;;;;;6054574;23;20474;-75
2022/07/26 12:21:43;;;;;;;1.87;1.10;;;30.60;57.30;;;;;;6054587;23;21025;-75
2022/07/26 12:24:12;;;;;;;1.70;0.90;;;30.70;57.30;;;;;;6051395;23;20459;-75
2022/07/26 12:26:40;;;;;;;1.43;0.90;;;30.80;55.70;;;;;;6053997;23;20602;-75
2022/07/26 12:29:25;;;;;;;1.00;0.87;;;30.90;55.60;;;;;;6062934;23;20448;-75
2022/07/26 12:32:09;;;;;;;1.97;0.80;;;30.70;57.20;;;;;;6060379;23;20471;-75
2022/07/26 12:34:36;;;;;;;4.17;3.87;;;30.70;55.40;;;;;;6057194;23;20492;-76
2022/07/26 12:37:15;;;;;;;4.90;1.90;;;30.70;56.40;;;;;;6058488;23;20438;-76
2022/07/26 12:39:59;;;;;;;1.47;1.30;;;30.40;57.20;;;;;;6055932;23;20440;-74
2022/07/26 12:42:31;;;;;;;1.60;1.00;;;30.40;56.50;;;;;;6053007;23;20475;-74
2022/07/26 12:45:05;;;;;;;2.00;1.00;;;30.50;56.40;;;;;;6058406;23;20459;-74
2022/07/26 12:47:57;;;;;;;1.67;1.07;;;30.80;55.90;;;;;;6052843;23;21045;-73
2022/07/26 12:50:26;;;;;;;1.23;0.80;;;30.60;55.80;;;;;;6057003;23;20466;-73
2022/07/26 12:53:00;;;;;;;1.77;1.00;;;30.80;55.20;;;;;;6057086;23;20436;-73
2022/07/26 12:55:30;;;;;;;1.13;1.00;;;30.90;54.70;;;;;;6047657;23;20513;-74
2022/07/26 12:57:58;;;;;;;1.57;0.97;;;30.60;54.90;;;;;;6053222;23;20958;-74